sensor_id;sensor_type;location;lat;lon;timestamp;P1;durP1;ratioP1;P2;durP2;ratioP2
37559;SDS011;23398;50.928;7.084;2023-10-13T00:01:53;4.88;;;3.00;;
37559;SDS011;23398;50.928;7.084;2023-10-13T00:04:20;5.35;;;3.50;;
37559;SDS011;23398;50.928;7.084;2023-10-13T00:06:53;4.30;;;3.55;;
37559;SDS011;23398;50.928;7.084;2023-10-13T00:09:22;4.88;;;3.45;;
37559;SDS011;23398;50.928;7.084;2023-10-13T00:11:57;6.35;;;3.65;;
37559;SDS011;23398;50.928;7.084;2023-10-13T00:14:23;4.03;;;3.55;;
37559;SDS011;23398;50.928;7.084;2023-10-13T00:16:58;6.22;;;3.72;;
37559;SDS011;23398;50.928;7.084;2023-10-13T00:19:48;4.55;;;3.38;;
37559;SDS011;23398;50.928;7.084;2023-10-13T00:22:17;5.05;;;3.30;;
37559;SDS011;23398;50.928;7.084;2023-10-13T00:24:44;4.57;;;3.33;;
37559;SDS011;23398;50.928;7.084;2023-10-13T00:27:20;3.60;;;3.22;;
37559;SDS011;23398;50.928;7.084;2023-10-13T00:29:58;4.15;;;3.17;;
37559;SDS011;23398;50.928;7.084;2023-10-13T00:32:52;4.53;;;3.40;;
37559;SDS011;23398;50.928;7.084;2023-10-13T00:35:25;4.30;;;3.00;;
37559;SDS011;23398;50.928;7.084;2023-10-13T00:37:57;4.97;;;3.50;;
37559;SDS011;23398;50.928;7.084;2023-10-13T00:40:29;4.28;;;3.60;;
37559;SDS011;23398;50.928;7.084;2023-10-13T00:42:54;5.28;;;3.58;;
37559;SDS011;23398;50.928;7.084;2023-10-13T00:45:24;5.03;;;3.63;;
37559;SDS011;23398;50.928;7.084;2023-10-13T00:47:53;4.22;;;3.42;;
37559;SDS011;23398;50.928;7.084;2023-10-13T00:50:24;4.15;;;3.03;;
37559;SDS011;23398;50.928;7.084;2023-10-13T00:52:50;5.07;;;3.90;;
37559;SDS011;23398;50.928;7.084;2023-10-13T00:55:16;5.07;;;3.25;;
37559;SDS011;23398;50.928;7.084;2023-10-13T00:57:47;4.38;;;3.20;;
37559;SDS011;23398;50.928;7.084;2023-10-13T01:00:22;4.05;;;3.25;;
37559;SDS011;23398;50.928;7.084;2023-10-13T01:02:53;3.88;;;3.20;;
37559;SDS011;23398;50.928;7.084;2023-10-13T01:05:22;3.95;;;3.33;;
37559;SDS011;23398;50.928;7.084;2023-10-13T01:07:49;3.53;;;3.05;;
37559;SDS011;23398;50.928;7.084;2023-10-13T01:10:19;4.78;;;3.38;;
37559;SDS011;23398;50.928;7.084;2023-10-13T01:12:50;4.28;;;3.60;;
37559;SDS011;23398;50.928;7.084;2023-10-13T01:15:17;3.95;;;3.28;;
37559;SDS011;23398;50.928;7.084;2023-10-13T01:17:46;4.70;;;3.60;;
37559;SDS011;23398;50.928;7.084;2023-10-13T01:20:12;4.95;;;3.63;;
37559;SDS011;23398;50.928;7.084;2023-10-13T01:22:46;3.72;;;3.38;;
37559;SDS011;23398;50.928;7.084;2023-10-13T01:25:24;4.60;;;3.03;;
37559;SDS011;23398;50.928;7.084;2023-10-13T01:27:53;5.28;;;3.33;;
37559;SDS011;23398;50.928;7.084;2023-10-13T01:30:20;5.63;;;3.78;;
37559;SDS011;23398;50.928;7.084;2023-10-13T01:32:50;4.88;;;3.60;;
37559;SDS011;23398;50.928;7.084;2023-10-13T01:35:17;6.32;;;3.97;;
37559;SDS011;23398;50.928;7.084;2023-10-13T01:38:00;4.55;;;3.60;;
37559;SDS011;23398;50.928;7.084;2023-10-13T01:40:26;4.38;;;3.22;;
37559;SDS011;23398;50.928;7.084;2023-10-13T01:42:54;3.85;;;3.28;;
37559;SDS011;23398;50.928;7.084;2023-10-13T01:45:20;5.65;;;3.72;;
37559;SDS011;23398;50.928;7.084;2023-10-13T01:47:46;6.05;;;3.83;;
37559;SDS011;23398;50.928;7.084;2023-10-13T01:50:15;4.20;;;3.30;;
37559;SDS011;23398;50.928;7.084;2023-10-13T01:52:51;3.83;;;3.00;;
37559;SDS011;23398;50.928;7.084;2023-10-13T01:55:24;4.75;;;3.45;;
37559;SDS011;23398;50.928;7.084;2023-10-13T01:57:50;5.40;;;3.42;;
37559;SDS011;23398;50.928;7.084;2023-10-13T02:00:17;4.47;;;3.40;;
37559;SDS011;23398;50.928;7.084;2023-10-13T02:02:45;4.70;;;3.65;;
37559;SDS011;23398;50.928;7.084;2023-10-13T02:05:14;4.65;;;3.60;;
37559;SDS011;23398;50.928;7.084;2023-10-13T02:07:42;4.93;;;3.40;;
37559;SDS011;23398;50.928;7.084;2023-10-13T02:10:10;4.30;;;3.65;;
37559;SDS011;23398;50.928;7.084;2023-10-13T02:12:38;6.13;;;3.78;;
37559;SDS011;23398;50.928;7.084;2023-10-13T02:15:09;5.10;;;3.50;;
37559;SDS011;23398;50.928;7.084;2023-10-13T02:17:38;6.22;;;3.50;;
37559;SDS011;23398;50.928;7.084;2023-10-13T02:20:07;3.63;;;3.22;;
37559;SDS011;23398;50.928;7.084;2023-10-13T02:22:39;4.75;;;3.47;;
37559;SDS011;23398;50.928;7.084;2023-10-13T02:25:13;4.85;;;3.67;;
37559;SDS011;23398;50.928;7.084;2023-10-13T02:28:00;3.92;;;3.30;;
37559;SDS011;23398;50.928;7.084;2023-10-13T02:30:36;4.13;;;3.50;;
37559;SDS011;23398;50.928;7.084;2023-10-13T02:33:03;6.15;;;3.50;;
37559;SDS011;23398;50.928;7.084;2023-10-13T02:35:30;5.82;;;3.97;;
37559;SDS011;23398;50.928;7.084;2023-10-13T02:38:07;4.95;;;3.53;;
37559;SDS011;23398;50.928;7.084;2023-10-13T02:40:36;4.78;;;3.67;;
37559;SDS011;23398;50.928;7.084;2023-10-13T02:43:03;4.18;;;3.72;;
37559;SDS011;23398;50.928;7.084;2023-10-13T02:45:32;5.15;;;3.70;;
37559;SDS011;23398;50.928;7.084;2023-10-13T02:48:02;6.13;;;3.72;;
37559;SDS011;23398;50.928;7.084;2023-10-13T02:50:42;6.53;;;3.65;;
37559;SDS011;23398;50.928;7.084;2023-10-13T02:53:09;4.00;;;3.60;;
37559;SDS011;23398;50.928;7.084;2023-10-13T02:55:37;4.88;;;3.25;;
37559;SDS011;23398;50.928;7.084;2023-10-13T02:58:13;7.35;;;3.72;;
37559;SDS011;23398;50.928;7.084;2023-10-13T03:00:39;6.68;;;3.58;;
37559;SDS011;23398;50.928;7.084;2023-10-13T03:03:06;4.55;;;3.92;;
37559;SDS011;23398;50.928;7.084;2023-10-13T03:05:34;6.70;;;3.75;;
37559;SDS011;23398;50.928;7.084;2023-10-13T03:08:03;5.43;;;3.53;;
37559;SDS011;23398;50.928;7.084;2023-10-13T03:10:30;3.95;;;3.55;;
37559;SDS011;23398;50.928;7.084;2023-10-13T03:12:55;4.95;;;3.85;;
37559;SDS011;23398;50.928;7.084;2023-10-13T03:15:21;5.05;;;3.58;;
37559;SDS011;23398;50.928;7.084;2023-10-13T03:17:54;4.50;;;3.97;;
37559;SDS011;23398;50.928;7.084;2023-10-13T03:20:23;4.90;;;3.70;;
37559;SDS011;23398;50.928;7.084;2023-10-13T03:22:55;6.10;;;3.83;;
37559;SDS011;23398;50.928;7.084;2023-10-13T03:25:20;4.80;;;3.90;;
37559;SDS011;23398;50.928;7.084;2023-10-13T03:28:07;5.03;;;3.53;;
37559;SDS011;23398;50.928;7.084;2023-10-13T03:30:38;4.65;;;3.70;;
37559;SDS011;23398;50.928;7.084;2023-10-13T03:33:06;3.88;;;3.47;;
37559;SDS011;23398;50.928;7.084;2023-10-13T03:35:36;4.65;;;3.42;;
37559;SDS011;23398;50.928;7.084;2023-10-13T03:38:03;3.90;;;3.40;;
37559;SDS011;23398;50.928;7.084;2023-10-13T03:40:29;5.80;;;3.78;;
37559;SDS011;23398;50.928;7.084;2023-10-13T03:42:58;4.18;;;3.50;;
37559;SDS011;23398;50.928;7.084;2023-10-13T03:45:33;4.10;;;3.70;;
37559;SDS011;23398;50.928;7.084;2023-10-13T03:48:13;4.30;;;3.70;;
37559;SDS011;23398;50.928;7.084;2023-10-13T03:50:50;4.28;;;3.88;;
37559;SDS011;23398;50.928;7.084;2023-10-13T03:53:31;3.47;;;3.17;;
37559;SDS011;23398;50.928;7.084;2023-10-13T03:56:05;6.00;;;3.97;;
37559;SDS011;23398;50.928;7.084;2023-10-13T03:58:39;6.10;;;3.35;;
37559;SDS011;23398;50.928;7.084;2023-10-13T04:01:11;6.35;;;4.03;;
37559;SDS011;23398;50.928;7.084;2023-10-13T04:03:40;5.70;;;4.00;;
37559;SDS011;23398;50.928;7.084;2023-10-13T04:06:26;5.18;;;3.80;;
37559;SDS011;23398;50.928;7.084;2023-10-13T04:09:21;3.78;;;3.35;;
37559;SDS011;23398;50.928;7.084;2023-10-13T04:12:07;4.32;;;3.63;;
37559;SDS011;23398;50.928;7.084;2023-10-13T04:14:37;4.15;;;3.70;;
37559;SDS011;23398;50.928;7.084;2023-10-13T04:17:26;5.35;;;3.35;;
37559;SDS011;23398;50.928;7.084;2023-10-13T04:19:52;6.80;;;3.70;;
37559;SDS011;23398;50.928;7.084;2023-10-13T04:22:34;5.43;;;3.58;;
37559;SDS011;23398;50.928;7.084;2023-10-13T04:28:04;4.20;;;3.55;;
37559;SDS011;23398;50.928;7.084;2023-10-13T04:33:20;4.10;;;3.50;;
37559;SDS011;23398;50.928;7.084;2023-10-13T04:36:15;5.28;;;3.67;;
37559;SDS011;23398;50.928;7.084;2023-10-13T04:38:46;4.80;;;3.58;;
37559;SDS011;23398;50.928;7.084;2023-10-13T04:41:28;4.40;;;3.70;;
37559;SDS011;23398;50.928;7.084;2023-10-13T04:44:14;5.30;;;3.55;;
37559;SDS011;23398;50.928;7.084;2023-10-13T04:46:59;4.85;;;3.53;;
37559;SDS011;23398;50.928;7.084;2023-10-13T04:49:25;4.20;;;3.58;;
37559;SDS011;23398;50.928;7.084;2023-10-13T04:52:15;4.20;;;3.42;;
37559;SDS011;23398;50.928;7.084;2023-10-13T04:55:05;4.45;;;3.90;;
37559;SDS011;23398;50.928;7.084;2023-10-13T04:57:57;4.03;;;3.63;;
37559;SDS011;23398;50.928;7.084;2023-10-13T05:00:36;4.05;;;3.60;;
37559;SDS011;23398;50.928;7.084;2023-10-13T05:03:20;4.57;;;3.92;;
37559;SDS011;23398;50.928;7.084;2023-10-13T05:06:18;4.90;;;3.53;;
37559;SDS011;23398;50.928;7.084;2023-10-13T05:09:03;3.95;;;3.53;;
37559;SDS011;23398;50.928;7.084;2023-10-13T05:11:47;6.00;;;3.97;;
37559;SDS011;23398;50.928;7.084;2023-10-13T05:14:31;7.03;;;4.30;;
37559;SDS011;23398;50.928;7.084;2023-10-13T05:17:15;9.13;;;4.22;;
37559;SDS011;23398;50.928;7.084;2023-10-13T05:19:59;5.03;;;3.97;;
37559;SDS011;23398;50.928;7.084;2023-10-13T05:22:43;5.43;;;3.85;;
37559;SDS011;23398;50.928;7.084;2023-10-13T05:25:27;4.82;;;3.58;;
37559;SDS011;23398;50.928;7.084;2023-10-13T05:28:11;5.32;;;3.50;;
37559;SDS011;23398;50.928;7.084;2023-10-13T05:30:58;5.15;;;3.70;;
37559;SDS011;23398;50.928;7.084;2023-10-13T05:33:43;6.95;;;3.65;;
37559;SDS011;23398;50.928;7.084;2023-10-13T05:36:27;5.45;;;3.90;;
37559;SDS011;23398;50.928;7.084;2023-10-13T05:39:15;5.93;;;3.80;;
37559;SDS011;23398;50.928;7.084;2023-10-13T05:42:00;5.40;;;3.58;;
37559;SDS011;23398;50.928;7.084;2023-10-13T05:44:44;5.88;;;3.67;;
37559;SDS011;23398;50.928;7.084;2023-10-13T05:47:41;5.43;;;3.70;;
37559;SDS011;23398;50.928;7.084;2023-10-13T05:50:07;3.90;;;3.50;;
37559;SDS011;23398;50.928;7.084;2023-10-13T05:52:45;5.25;;;3.58;;
37559;SDS011;23398;50.928;7.084;2023-10-13T05:55:21;5.18;;;3.90;;
37559;SDS011;23398;50.928;7.084;2023-10-13T05:58:09;5.75;;;3.60;;
37559;SDS011;23398;50.928;7.084;2023-10-13T06:00:54;4.22;;;3.70;;
37559;SDS011;23398;50.928;7.084;2023-10-13T06:03:39;6.53;;;4.57;;
37559;SDS011;23398;50.928;7.084;2023-10-13T06:06:22;5.65;;;4.07;;
37559;SDS011;23398;50.928;7.084;2023-10-13T06:09:08;4.88;;;3.83;;
37559;SDS011;23398;50.928;7.084;2023-10-13T06:11:53;6.72;;;4.00;;
37559;SDS011;23398;50.928;7.084;2023-10-13T06:14:37;6.90;;;4.32;;
37559;SDS011;23398;50.928;7.084;2023-10-13T06:17:21;4.30;;;3.50;;
37559;SDS011;23398;50.928;7.084;2023-10-13T06:20:05;6.75;;;3.75;;
37559;SDS011;23398;50.928;7.084;2023-10-13T06:22:50;5.53;;;3.65;;
37559;SDS011;23398;50.928;7.084;2023-10-13T06:25:34;6.80;;;3.75;;
37559;SDS011;23398;50.928;7.084;2023-10-13T06:28:18;5.47;;;4.00;;
37559;SDS011;23398;50.928;7.084;2023-10-13T06:31:04;7.07;;;3.60;;
37559;SDS011;23398;50.928;7.084;2023-10-13T06:33:33;3.83;;;3.33;;
37559;SDS011;23398;50.928;7.084;2023-10-13T06:35:59;5.18;;;3.63;;
37559;SDS011;23398;50.928;7.084;2023-10-13T06:38:29;5.20;;;3.45;;
37559;SDS011;23398;50.928;7.084;2023-10-13T06:41:01;4.85;;;3.55;;
37559;SDS011;23398;50.928;7.084;2023-10-13T06:43:30;5.38;;;3.15;;
37559;SDS011;23398;50.928;7.084;2023-10-13T06:46:11;5.35;;;3.67;;
37559;SDS011;23398;50.928;7.084;2023-10-13T06:48:48;5.55;;;3.72;;
37559;SDS011;23398;50.928;7.084;2023-10-13T06:51:18;5.43;;;3.45;;
37559;SDS011;23398;50.928;7.084;2023-10-13T06:53:47;7.93;;;3.40;;
37559;SDS011;23398;50.928;7.084;2023-10-13T06:56:17;5.85;;;3.20;;
37559;SDS011;23398;50.928;7.084;2023-10-13T06:58:56;6.38;;;3.42;;
37559;SDS011;23398;50.928;7.084;2023-10-13T07:01:27;5.68;;;3.72;;
37559;SDS011;23398;50.928;7.084;2023-10-13T07:03:53;4.45;;;3.28;;
37559;SDS011;23398;50.928;7.084;2023-10-13T07:06:19;5.05;;;3.38;;
37559;SDS011;23398;50.928;7.084;2023-10-13T07:08:46;5.88;;;3.50;;
37559;SDS011;23398;50.928;7.084;2023-10-13T07:11:17;5.68;;;3.25;;
37559;SDS011;23398;50.928;7.084;2023-10-13T07:14:01;9.07;;;3.92;;
37559;SDS011;23398;50.928;7.084;2023-10-13T07:16:54;9.40;;;3.53;;
37559;SDS011;23398;50.928;7.084;2023-10-13T07:19:23;7.25;;;3.45;;
37559;SDS011;23398;50.928;7.084;2023-10-13T07:21:52;7.50;;;3.25;;
37559;SDS011;23398;50.928;7.084;2023-10-13T07:24:42;9.40;;;3.55;;
37559;SDS011;23398;50.928;7.084;2023-10-13T07:27:07;6.13;;;3.50;;
37559;SDS011;23398;50.928;7.084;2023-10-13T07:29:33;4.43;;;3.25;;
37559;SDS011;23398;50.928;7.084;2023-10-13T07:32:02;5.70;;;3.20;;
37559;SDS011;23398;50.928;7.084;2023-10-13T07:34:28;7.28;;;3.70;;
37559;SDS011;23398;50.928;7.084;2023-10-13T07:36:57;6.47;;;3.40;;
37559;SDS011;23398;50.928;7.084;2023-10-13T07:39:29;6.75;;;3.13;;
37559;SDS011;23398;50.928;7.084;2023-10-13T07:42:04;5.97;;;3.10;;
37559;SDS011;23398;50.928;7.084;2023-10-13T07:44:33;7.13;;;3.08;;
37559;SDS011;23398;50.928;7.084;2023-10-13T07:46:59;6.22;;;3.50;;
37559;SDS011;23398;50.928;7.084;2023-10-13T07:49:29;5.30;;;3.03;;
37559;SDS011;23398;50.928;7.084;2023-10-13T07:51:57;6.15;;;3.45;;
37559;SDS011;23398;50.928;7.084;2023-10-13T07:54:26;5.65;;;3.30;;
37559;SDS011;23398;50.928;7.084;2023-10-13T07:56:52;6.75;;;3.30;;
37559;SDS011;23398;50.928;7.084;2023-10-13T07:59:20;6.45;;;3.30;;
37559;SDS011;23398;50.928;7.084;2023-10-13T08:01:47;7.05;;;3.60;;
37559;SDS011;23398;50.928;7.084;2023-10-13T08:04:31;10.17;;;4.47;;
37559;SDS011;23398;50.928;7.084;2023-10-13T08:07:00;6.97;;;3.72;;
37559;SDS011;23398;50.928;7.084;2023-10-13T08:09:37;10.93;;;3.35;;
37559;SDS011;23398;50.928;7.084;2023-10-13T08:12:06;6.00;;;3.17;;
37559;SDS011;23398;50.928;7.084;2023-10-13T08:14:37;6.00;;;3.38;;
37559;SDS011;23398;50.928;7.084;2023-10-13T08:17:08;10.00;;;3.85;;
37559;SDS011;23398;50.928;7.084;2023-10-13T08:19:37;9.82;;;3.63;;
37559;SDS011;23398;50.928;7.084;2023-10-13T08:22:13;8.18;;;3.20;;
37559;SDS011;23398;50.928;7.084;2023-10-13T08:24:41;6.30;;;3.47;;
37559;SDS011;23398;50.928;7.084;2023-10-13T08:27:07;7.60;;;3.42;;
37559;SDS011;23398;50.928;7.084;2023-10-13T08:29:39;8.07;;;3.38;;
37559;SDS011;23398;50.928;7.084;2023-10-13T08:32:20;6.82;;;3.25;;
37559;SDS011;23398;50.928;7.084;2023-10-13T08:35:02;6.65;;;3.33;;
37559;SDS011;23398;50.928;7.084;2023-10-13T08:37:28;5.60;;;3.25;;
37559;SDS011;23398;50.928;7.084;2023-10-13T08:40:12;7.18;;;3.20;;
37559;SDS011;23398;50.928;7.084;2023-10-13T08:42:57;7.28;;;3.38;;
37559;SDS011;23398;50.928;7.084;2023-10-13T08:45:30;5.53;;;3.00;;
37559;SDS011;23398;50.928;7.084;2023-10-13T08:53:16;7.88;;;3.25;;
37559;SDS011;23398;50.928;7.084;2023-10-13T08:58:26;5.90;;;3.05;;
37559;SDS011;23398;50.928;7.084;2023-10-13T09:01:12;8.50;;;3.50;;
37559;SDS011;23398;50.928;7.084;2023-10-13T09:03:39;8.45;;;3.47;;
37559;SDS011;23398;50.928;7.084;2023-10-13T09:06:11;6.75;;;3.13;;
37559;SDS011;23398;50.928;7.084;2023-10-13T09:08:40;6.57;;;3.50;;
37559;SDS011;23398;50.928;7.084;2023-10-13T09:11:24;5.13;;;3.42;;
37559;SDS011;23398;50.928;7.084;2023-10-13T09:13:52;7.88;;;3.10;;
37559;SDS011;23398;50.928;7.084;2023-10-13T09:16:18;6.95;;;3.38;;
37559;SDS011;23398;50.928;7.084;2023-10-13T09:19:02;8.88;;;3.72;;
37559;SDS011;23398;50.928;7.084;2023-10-13T09:21:40;6.50;;;3.30;;
37559;SDS011;23398;50.928;7.084;2023-10-13T09:24:09;5.32;;;3.22;;
37559;SDS011;23398;50.928;7.084;2023-10-13T09:26:58;5.50;;;3.40;;
37559;SDS011;23398;50.928;7.084;2023-10-13T09:29:26;6.00;;;3.40;;
37559;SDS011;23398;50.928;7.084;2023-10-13T09:32:00;7.90;;;3.63;;
37559;SDS011;23398;50.928;7.084;2023-10-13T09:34:27;6.32;;;3.17;;
37559;SDS011;23398;50.928;7.084;2023-10-13T09:36:57;6.95;;;3.50;;
37559;SDS011;23398;50.928;7.084;2023-10-13T09:39:26;8.15;;;3.75;;
37559;SDS011;23398;50.928;7.084;2023-10-13T09:41:56;6.72;;;3.28;;
37559;SDS011;23398;50.928;7.084;2023-10-13T09:44:24;5.07;;;3.25;;
37559;SDS011;23398;50.928;7.084;2023-10-13T09:46:56;6.28;;;3.53;;
37559;SDS011;23398;50.928;7.084;2023-10-13T09:49:31;5.28;;;3.35;;
37559;SDS011;23398;50.928;7.084;2023-10-13T09:52:15;9.25;;;4.00;;
37559;SDS011;23398;50.928;7.084;2023-10-13T09:54:51;7.45;;;3.28;;
37559;SDS011;23398;50.928;7.084;2023-10-13T09:57:27;7.03;;;3.47;;
37559;SDS011;23398;50.928;7.084;2023-10-13T10:00:06;6.28;;;3.58;;
37559;SDS011;23398;50.928;7.084;2023-10-13T10:02:59;5.50;;;3.42;;
37559;SDS011;23398;50.928;7.084;2023-10-13T10:05:39;6.28;;;4.05;;
37559;SDS011;23398;50.928;7.084;2023-10-13T10:08:05;6.72;;;3.70;;
37559;SDS011;23398;50.928;7.084;2023-10-13T10:10:43;5.60;;;3.75;;
37559;SDS011;23398;50.928;7.084;2023-10-13T10:13:34;6.03;;;3.63;;
37559;SDS011;23398;50.928;7.084;2023-10-13T10:16:11;4.18;;;3.25;;
37559;SDS011;23398;50.928;7.084;2023-10-13T10:18:40;6.22;;;3.90;;
37559;SDS011;23398;50.928;7.084;2023-10-13T10:21:06;5.78;;;3.85;;
37559;SDS011;23398;50.928;7.084;2023-10-13T10:23:32;9.60;;;4.40;;
37559;SDS011;23398;50.928;7.084;2023-10-13T10:26:11;6.70;;;3.58;;
37559;SDS011;23398;50.928;7.084;2023-10-13T10:28:44;6.05;;;3.78;;
37559;SDS011;23398;50.928;7.084;2023-10-13T10:31:11;6.45;;;3.75;;
37559;SDS011;23398;50.928;7.084;2023-10-13T10:33:46;8.57;;;4.03;;
37559;SDS011;23398;50.928;7.084;2023-10-13T10:36:15;6.68;;;4.47;;
37559;SDS011;23398;50.928;7.084;2023-10-13T10:38:56;4.78;;;3.55;;
37559;SDS011;23398;50.928;7.084;2023-10-13T10:41:26;7.15;;;4.78;;
37559;SDS011;23398;50.928;7.084;2023-10-13T10:44:09;6.93;;;4.22;;
37559;SDS011;23398;50.928;7.084;2023-10-13T10:46:40;6.47;;;4.10;;
37559;SDS011;23398;50.928;7.084;2023-10-13T10:49:08;7.10;;;4.60;;
37559;SDS011;23398;50.928;7.084;2023-10-13T10:51:36;7.82;;;5.00;;
37559;SDS011;23398;50.928;7.084;2023-10-13T10:54:19;7.65;;;4.80;;
37559;SDS011;23398;50.928;7.084;2023-10-13T10:56:46;9.43;;;5.30;;
37559;SDS011;23398;50.928;7.084;2023-10-13T10:59:17;8.25;;;5.20;;
37559;SDS011;23398;50.928;7.084;2023-10-13T11:01:44;7.95;;;4.90;;
37559;SDS011;23398;50.928;7.084;2023-10-13T11:04:16;7.75;;;4.97;;
37559;SDS011;23398;50.928;7.084;2023-10-13T11:06:46;5.93;;;4.90;;
37559;SDS011;23398;50.928;7.084;2023-10-13T11:09:12;7.07;;;4.85;;
37559;SDS011;23398;50.928;7.084;2023-10-13T11:11:55;5.88;;;4.65;;
37559;SDS011;23398;50.928;7.084;2023-10-13T11:14:28;6.53;;;4.63;;
37559;SDS011;23398;50.928;7.084;2023-10-13T11:16:55;8.77;;;5.45;;
37559;SDS011;23398;50.928;7.084;2023-10-13T11:22:09;9.15;;;4.65;;
37559;SDS011;23398;50.928;7.084;2023-10-13T11:24:57;9.23;;;4.43;;
37559;SDS011;23398;50.928;7.084;2023-10-13T11:27:34;5.50;;;4.20;;
37559;SDS011;23398;50.928;7.084;2023-10-13T11:30:15;5.45;;;4.05;;
37559;SDS011;23398;50.928;7.084;2023-10-13T11:32:57;7.30;;;4.78;;
37559;SDS011;23398;50.928;7.084;2023-10-13T11:35:37;9.35;;;4.78;;
37559;SDS011;23398;50.928;7.084;2023-10-13T11:38:22;10.90;;;4.60;;
37559;SDS011;23398;50.928;7.084;2023-10-13T11:41:01;6.25;;;4.25;;
37559;SDS011;23398;50.928;7.084;2023-10-13T11:46:26;8.88;;;4.00;;
37559;SDS011;23398;50.928;7.084;2023-10-13T11:49:01;6.68;;;3.70;;
37559;SDS011;23398;50.928;7.084;2023-10-13T11:51:33;6.72;;;3.83;;
37559;SDS011;23398;50.928;7.084;2023-10-13T11:54:03;17.92;;;4.68;;
37559;SDS011;23398;50.928;7.084;2023-10-13T11:56:28;5.78;;;3.90;;
37559;SDS011;23398;50.928;7.084;2023-10-13T11:58:54;8.93;;;4.20;;
37559;SDS011;23398;50.928;7.084;2023-10-13T12:01:26;9.20;;;4.00;;
37559;SDS011;23398;50.928;7.084;2023-10-13T12:04:12;8.65;;;3.95;;
37559;SDS011;23398;50.928;7.084;2023-10-13T12:06:56;5.85;;;3.88;;
37559;SDS011;23398;50.928;7.084;2023-10-13T12:09:42;4.68;;;3.25;;
37559;SDS011;23398;50.928;7.084;2023-10-13T12:12:34;6.32;;;3.38;;
37559;SDS011;23398;50.928;7.084;2023-10-13T12:15:06;5.95;;;3.67;;
37559;SDS011;23398;50.928;7.084;2023-10-13T12:17:49;8.23;;;3.83;;
37559;SDS011;23398;50.928;7.084;2023-10-13T12:20:15;7.57;;;3.85;;
37559;SDS011;23398;50.928;7.084;2023-10-13T12:22:57;10.82;;;3.80;;
37559;SDS011;23398;50.928;7.084;2023-10-13T12:25:24;7.13;;;3.83;;
37559;SDS011;23398;50.928;7.084;2023-10-13T12:27:54;10.23;;;3.55;;
37559;SDS011;23398;50.928;7.084;2023-10-13T12:30:24;4.40;;;3.30;;
37559;SDS011;23398;50.928;7.084;2023-10-13T12:33:09;9.15;;;4.35;;
37559;SDS011;23398;50.928;7.084;2023-10-13T12:35:35;11.07;;;5.03;;
37559;SDS011;23398;50.928;7.084;2023-10-13T12:38:10;8.63;;;4.50;;
37559;SDS011;23398;50.928;7.084;2023-10-13T12:40:58;6.18;;;3.45;;
37559;SDS011;23398;50.928;7.084;2023-10-13T12:43:42;8.38;;;4.13;;
37559;SDS011;23398;50.928;7.084;2023-10-13T12:46:46;7.32;;;4.07;;
37559;SDS011;23398;50.928;7.084;2023-10-13T12:49:32;6.55;;;3.92;;
37559;SDS011;23398;50.928;7.084;2023-10-13T12:52:08;5.55;;;3.60;;
37559;SDS011;23398;50.928;7.084;2023-10-13T12:54:41;7.82;;;4.07;;
37559;SDS011;23398;50.928;7.084;2023-10-13T12:57:27;5.03;;;3.28;;
37559;SDS011;23398;50.928;7.084;2023-10-13T12:59:53;5.72;;;3.70;;
37559;SDS011;23398;50.928;7.084;2023-10-13T13:02:20;5.47;;;3.28;;
37559;SDS011;23398;50.928;7.084;2023-10-13T13:04:46;7.82;;;3.80;;
37559;SDS011;23398;50.928;7.084;2023-10-13T13:07:18;7.75;;;3.80;;
37559;SDS011;23398;50.928;7.084;2023-10-13T13:09:43;6.85;;;3.45;;
37559;SDS011;23398;50.928;7.084;2023-10-13T13:12:09;6.45;;;3.42;;
37559;SDS011;23398;50.928;7.084;2023-10-13T13:14:37;5.75;;;3.40;;
37559;SDS011;23398;50.928;7.084;2023-10-13T13:17:06;6.97;;;3.55;;
37559;SDS011;23398;50.928;7.084;2023-10-13T13:19:35;7.57;;;3.72;;
37559;SDS011;23398;50.928;7.084;2023-10-13T13:22:04;10.38;;;3.90;;
37559;SDS011;23398;50.928;7.084;2023-10-13T13:24:34;6.03;;;3.30;;
37559;SDS011;23398;50.928;7.084;2023-10-13T13:27:00;9.63;;;3.78;;
37559;SDS011;23398;50.928;7.084;2023-10-13T13:29:29;5.97;;;3.38;;
37559;SDS011;23398;50.928;7.084;2023-10-13T13:31:55;7.07;;;3.33;;
37559;SDS011;23398;50.928;7.084;2023-10-13T13:34:21;7.72;;;3.70;;
37559;SDS011;23398;50.928;7.084;2023-10-13T13:36:47;6.43;;;3.70;;
37559;SDS011;23398;50.928;7.084;2023-10-13T13:39:17;7.38;;;3.40;;
37559;SDS011;23398;50.928;7.084;2023-10-13T13:41:56;5.68;;;3.33;;
37559;SDS011;23398;50.928;7.084;2023-10-13T13:44:24;7.38;;;3.70;;
37559;SDS011;23398;50.928;7.084;2023-10-13T13:47:01;9.18;;;3.70;;
37559;SDS011;23398;50.928;7.084;2023-10-13T13:49:36;5.78;;;3.60;;
37559;SDS011;23398;50.928;7.084;2023-10-13T13:52:08;6.20;;;3.53;;
37559;SDS011;23398;50.928;7.084;2023-10-13T13:54:35;7.47;;;3.55;;
37559;SDS011;23398;50.928;7.084;2023-10-13T13:57:00;5.90;;;3.47;;
37559;SDS011;23398;50.928;7.084;2023-10-13T13:59:26;4.75;;;3.35;;
37559;SDS011;23398;50.928;7.084;2023-10-13T14:01:58;6.13;;;2.95;;
37559;SDS011;23398;50.928;7.084;2023-10-13T14:04:24;4.72;;;3.38;;
37559;SDS011;23398;50.928;7.084;2023-10-13T14:06:50;6.38;;;3.58;;
37559;SDS011;23398;50.928;7.084;2023-10-13T14:09:16;8.80;;;3.80;;
37559;SDS011;23398;50.928;7.084;2023-10-13T14:11:58;5.63;;;3.38;;
37559;SDS011;23398;50.928;7.084;2023-10-13T14:14:42;4.65;;;3.20;;
37559;SDS011;23398;50.928;7.084;2023-10-13T14:17:23;7.35;;;3.30;;
37559;SDS011;23398;50.928;7.084;2023-10-13T14:19:58;6.18;;;3.97;;
37559;SDS011;23398;50.928;7.084;2023-10-13T14:22:24;8.52;;;3.20;;
37559;SDS011;23398;50.928;7.084;2023-10-13T14:24:50;9.10;;;3.60;;
37559;SDS011;23398;50.928;7.084;2023-10-13T14:27:20;5.47;;;3.50;;
37559;SDS011;23398;50.928;7.084;2023-10-13T14:29:48;8.98;;;3.40;;
37559;SDS011;23398;50.928;7.084;2023-10-13T14:32:18;8.35;;;3.75;;
37559;SDS011;23398;50.928;7.084;2023-10-13T14:34:47;7.80;;;3.30;;
37559;SDS011;23398;50.928;7.084;2023-10-13T14:37:19;7.18;;;3.75;;
37559;SDS011;23398;50.928;7.084;2023-10-13T14:39:52;6.85;;;3.40;;
37559;SDS011;23398;50.928;7.084;2023-10-13T14:42:22;6.47;;;3.58;;
37559;SDS011;23398;50.928;7.084;2023-10-13T14:44:48;6.82;;;3.65;;
37559;SDS011;23398;50.928;7.084;2023-10-13T14:47:20;7.45;;;3.58;;
37559;SDS011;23398;50.928;7.084;2023-10-13T14:49:52;6.70;;;3.67;;
37559;SDS011;23398;50.928;7.084;2023-10-13T14:52:24;5.82;;;3.35;;
37559;SDS011;23398;50.928;7.084;2023-10-13T14:54:50;5.30;;;3.40;;
37559;SDS011;23398;50.928;7.084;2023-10-13T14:57:20;5.72;;;3.53;;
37559;SDS011;23398;50.928;7.084;2023-10-13T14:59:53;8.57;;;3.72;;
37559;SDS011;23398;50.928;7.084;2023-10-13T15:02:20;6.47;;;3.40;;
37559;SDS011;23398;50.928;7.084;2023-10-13T15:04:49;6.50;;;3.28;;
37559;SDS011;23398;50.928;7.084;2023-10-13T15:07:15;7.97;;;3.70;;
37559;SDS011;23398;50.928;7.084;2023-10-13T15:09:42;8.18;;;3.90;;
37559;SDS011;23398;50.928;7.084;2023-10-13T15:12:09;9.57;;;3.67;;
37559;SDS011;23398;50.928;7.084;2023-10-13T15:14:36;7.85;;;3.63;;
37559;SDS011;23398;50.928;7.084;2023-10-13T15:17:07;5.93;;;3.30;;
37559;SDS011;23398;50.928;7.084;2023-10-13T15:19:36;5.43;;;3.30;;
37559;SDS011;23398;50.928;7.084;2023-10-13T15:22:04;6.13;;;3.15;;
37559;SDS011;23398;50.928;7.084;2023-10-13T15:24:37;5.47;;;3.38;;
37559;SDS011;23398;50.928;7.084;2023-10-13T15:27:25;5.70;;;3.30;;
37559;SDS011;23398;50.928;7.084;2023-10-13T15:29:53;6.28;;;3.25;;
37559;SDS011;23398;50.928;7.084;2023-10-13T15:32:19;9.70;;;3.70;;
37559;SDS011;23398;50.928;7.084;2023-10-13T15:35:03;4.65;;;3.17;;
37559;SDS011;23398;50.928;7.084;2023-10-13T15:37:30;5.80;;;3.25;;
37559;SDS011;23398;50.928;7.084;2023-10-13T15:39:55;7.55;;;3.63;;
37559;SDS011;23398;50.928;7.084;2023-10-13T15:42:22;6.32;;;3.70;;
37559;SDS011;23398;50.928;7.084;2023-10-13T15:44:48;6.30;;;3.35;;
37559;SDS011;23398;50.928;7.084;2023-10-13T15:47:15;6.03;;;3.47;;